Misty Dawn — WDC8124 — position and weather

sailwx.info

Track history (hours):
 
Tides and Currents Weather Stations Pressure Air Temp Water Temp Dewpoint Dewpoint Depression Visibility Wind Speed Wind Dir Waves Ship Positions

Misty Dawn

Owner: Katahdin, Inc., Seattle, WA. More information available from US FCC via Universal Licensing System and Coast Guard Vessel Documentation Center.

Last reported at 2019-Jan-18 08:18 UTC. Time now 2019-Mar-25 10:23 UTC.
Position N 49°10' W 126°37'.
Warning: this ship's position is months out of date.

Length 22 m; draft 25.5 m.

MMSI: 367082010.

Date/timePositionNaut miles runAvg speedWind from/ knotsBaromVisibWave heightAir tempDewpointWater temp
2019-Jan-18 08:18N 49°10' W 126°37'410.3
2019-Jan-18 07:56N 49°08' W 126°32'510.2
2019-Jan-18 07:29N 49°06' W 126°26'510.6
2019-Jan-18 07:00N 49°03' W 126°19'510.6
2019-Jan-18 06:30N 49°01' W 126°12'510.6
2019-Jan-18 06:00N 48°58' W 126°05'510.6
2019-Jan-18 05:31N 48°55' W 125°58'510.2
2019-Jan-18 05:00N 48°53' W 125°51'5 9.8
2019-Jan-18 04:31N 48°50' W 125°45'510.1
2019-Jan-18 04:00N 48°47' W 125°38'510.3
2019-Jan-18 03:31N 48°45' W 125°32'510.1
2019-Jan-18 03:00N 48°42' W 125°25'510.6
2019-Jan-18 02:30N 48°40' W 125°18'510.9
2019-Jan-18 02:00N 48°37' W 125°11'510.2
2019-Jan-18 01:30N 48°34' W 125°04'610.8
2019-Jan-18 01:00N 48°32' W 124°57'510.6
2019-Jan-18 00:30N 48°29' W 124°50'611.3
2019-Jan-18 00:00N 48°26' W 124°43'3 6.7
2019-Jan-17 23:30N 48°25' W 124°38'3 6.6
2019-Jan-17 23:01N 48°22' W 124°37'0 0.2
2019-Jan-17 22:30N 48°22' W 124°37'0 0.0
2019-Jan-17 22:00N 48°22' W 124°37'0 0.0
2019-Jan-17 21:30N 48°22' W 124°37'0 0.0
2019-Jan-17 21:00N 48°22' W 124°37'0 0.0
2019-Jan-17 20:30N 48°22' W 124°37'0 0.0
2019-Jan-17 20:00N 48°22' W 124°37'0 0.0
2019-Jan-17 19:30N 48°22' W 124°37'0 0.0
2019-Jan-17 19:00N 48°22' W 124°37'0 0.0
2019-Jan-17 18:30N 48°22' W 124°37'0 0.0
2019-Jan-17 18:00N 48°22' W 124°37'0 0.0
2019-Jan-17 17:30N 48°22' W 124°37'0 0.0
2019-Jan-17 17:00N 48°22' W 124°37'0 0.0
2019-Jan-17 16:30N 48°22' W 124°37'0 0.0
2019-Jan-17 16:00N 48°22' W 124°37'0 0.0
2019-Jan-17 15:30N 48°22' W 124°37'0 0.0
2019-Jan-17 15:00N 48°22' W 124°37'0 0.0
2019-Jan-17 14:30N 48°22' W 124°37'0 0.0
2019-Jan-17 14:00N 48°22' W 124°37'0 0.0
2019-Jan-17 13:30N 48°22' W 124°37'0 0.9
2019-Jan-17 13:00N 48°22' W 124°36'5 9.7
2019-Jan-17 12:30N 48°21' W 124°29'510.2
2019-Jan-17 12:00N 48°19' W 124°22'510.3
2019-Jan-17 11:30N 48°17' W 124°15'510.4
2019-Jan-17 11:00N 48°15' W 124°08'5 9.7
2019-Jan-17 10:30N 48°13' W 124°01'5 9.4
2019-Jan-17 09:59N 48°11' W 123°54'5 9.2
2019-Jan-17 09:23N 48°11' W 123°46'13 8.6
2019-Jan-17 07:56N 48°10' W 123°27'5 8.9
2019-Jan-17 07:24N 48°10' W 123°20'4 8.6
2019-Jan-17 06:56N 48°10' W 123°14'5 9.0
2019-Jan-17 06:24N 48°12' W 123°07'4 8.3
2019-Jan-17 05:56N 48°11' W 123°02'25 8.5
2019-Jan-17 02:59N 47°57' W 122°31'5 9.7
2019-Jan-17 02:30N 47°53' W 122°27'510.0
2019-Jan-17 02:00N 47°48' W 122°26'510.0
2019-Jan-17 01:30N 47°43' W 122°25'3 5.9
2019-Jan-17 01:00N 47°40' W 122°24'1 1.5
2019-Jan-17 00:30N 47°40' W 122°23'0 0.0
2019-Jan-17 00:00N 47°40' W 122°23'0 0.0
2019-Jan-16 23:30N 47°40' W 122°23'0 0.0
2019-Jan-16 23:00N 47°40' W 122°23'0 0.0
2019-Jan-16 22:30N 47°40' W 122°23'0 0.0
2019-Jan-16 22:00N 47°40' W 122°23'0 0.0
2019-Jan-16 21:30N 47°40' W 122°23'0 0.0
2019-Jan-16 21:00N 47°40' W 122°23'0 0.0
2019-Jan-16 20:30N 47°40' W 122°23'0 0.0
2019-Jan-16 20:00N 47°40' W 122°23'0 0.0
2019-Jan-16 19:30N 47°40' W 122°23'0 0.0
2019-Jan-16 19:00N 47°40' W 122°23'0 0.0
2019-Jan-16 18:30N 47°40' W 122°23'0 0.0
2019-Jan-16 18:00N 47°40' W 122°23'0 0.0
2019-Jan-16 17:30N 47°40' W 122°23'0 0.0
2019-Jan-16 17:00N 47°40' W 122°23'0 0.0
2019-Jan-16 16:30N 47°40' W 122°23'0 0.0
2019-Jan-16 16:00N 47°40' W 122°23'0 0.0
2019-Jan-16 15:30N 47°40' W 122°23'0 0.0
2019-Jan-16 15:00N 47°40' W 122°23'0 0.0
2019-Jan-16 14:30N 47°40' W 122°23'0 0.0
2019-Jan-16 14:00N 47°40' W 122°23'0 0.0
2019-Jan-16 13:30N 47°40' W 122°23'0 0.0
2019-Jan-16 13:00N 47°40' W 122°23'0 0.0
2019-Jan-16 12:30N 47°40' W 122°23'0 0.0
2019-Jan-16 12:00N 47°40' W 122°23'0 0.0
2019-Jan-16 11:30N 47°40' W 122°23'0 0.0
2019-Jan-16 11:00N 47°40' W 122°23'0 0.0
2019-Jan-16 10:30N 47°40' W 122°23'0 0.0
2019-Jan-16 10:00N 47°40' W 122°23'0 0.0
2019-Jan-16 09:30N 47°40' W 122°23'0 0.0
2019-Jan-16 09:00N 47°40' W 122°23'0 0.0
2019-Jan-16 08:30N 47°40' W 122°23'0 0.0
2019-Jan-16 08:00N 47°40' W 122°23'0 0.0
2019-Jan-16 07:30N 47°40' W 122°23'0 0.0
2019-Jan-16 07:00N 47°40' W 122°23'0 0.0
2019-Jan-16 06:30N 47°40' W 122°23'0 0.0
2019-Jan-16 06:00N 47°40' W 122°23'0 0.0
2019-Jan-16 05:30N 47°40' W 122°23'0 0.0
2019-Jan-16 05:00N 47°40' W 122°23'0 0.0
2019-Jan-16 04:30N 47°40' W 122°23'0 0.0
2019-Jan-16 04:00N 47°40' W 122°23'0 0.0
2019-Jan-16 03:30N 47°40' W 122°23'0 0.0
2019-Jan-16 03:00N 47°40' W 122°23'0 0.0
2019-Jan-16 02:30N 47°40' W 122°23'0 0.0
2019-Jan-16 02:00N 47°40' W 122°23'0 0.0
2019-Jan-16 01:30N 47°40' W 122°23'0 0.0
2019-Jan-16 01:00N 47°40' W 122°23'0 0.0
2019-Jan-16 00:30N 47°40' W 122°23'0 0.0
2019-Jan-16 00:00N 47°40' W 122°23'0 0.0
2019-Jan-15 23:30N 47°40' W 122°23'0 0.0
2019-Jan-15 23:00N 47°40' W 122°23'0 0.0
2019-Jan-15 22:30N 47°40' W 122°23'0 0.0
2019-Jan-15 22:00N 47°40' W 122°23'0 0.0
2019-Jan-15 21:30N 47°40' W 122°23'0 0.0
2019-Jan-15 21:00N 47°40' W 122°23'0 0.0
2019-Jan-15 20:30N 47°40' W 122°23'0 0.0
2019-Jan-15 20:00N 47°40' W 122°23'0 0.0
2019-Jan-15 19:30N 47°40' W 122°23'0 0.0
2019-Jan-15 19:00N 47°40' W 122°23'0 0.0
2019-Jan-15 18:30N 47°40' W 122°23'0 0.0
2019-Jan-15 18:00N 47°40' W 122°23'0 0.0
2019-Jan-15 17:30N 47°40' W 122°23'0 0.0
2019-Jan-15 17:00N 47°40' W 122°23'0 0.0
2019-Jan-15 16:30N 47°40' W 122°23'0 0.0
2019-Jan-15 16:00N 47°40' W 122°23'0 0.0
2019-Jan-15 15:30N 47°40' W 122°23'0 0.0
2019-Jan-15 15:00N 47°40' W 122°23'0 0.0
2019-Jan-15 14:30N 47°40' W 122°23'0 0.0
2019-Jan-15 14:00N 47°40' W 122°23'0 0.0
2019-Jan-15 13:30N 47°40' W 122°23'0 0.0
2019-Jan-15 13:00N 47°40' W 122°23'0 0.0
2019-Jan-15 12:30N 47°40' W 122°23'0 0.0
2019-Jan-15 12:00N 47°40' W 122°23'0 0.0
2019-Jan-15 11:30N 47°40' W 122°23'0 0.0
2019-Jan-15 11:00N 47°40' W 122°23'0 0.0
2019-Jan-15 10:30N 47°40' W 122°23'0 0.0
2019-Jan-15 10:00N 47°40' W 122°23'0 0.0
2019-Jan-15 09:30N 47°40' W 122°23'0 0.0
2019-Jan-15 09:00N 47°40' W 122°23'0 0.0
2019-Jan-15 08:30N 47°40' W 122°23'0 0.0
2019-Jan-15 08:00N 47°40' W 122°23'0 0.0
2019-Jan-15 07:30N 47°40' W 122°23'0 0.0
2019-Jan-15 07:00N 47°40' W 122°23'0 0.0
2019-Jan-15 06:30N 47°40' W 122°23'0 0.0
2019-Jan-15 06:00N 47°40' W 122°23'0 0.0
2019-Jan-15 05:30N 47°40' W 122°23'0 0.0
2019-Jan-15 05:00N 47°40' W 122°23'0 0.0
2019-Jan-15 04:30N 47°40' W 122°23'0 0.0
2019-Jan-15 04:00N 47°40' W 122°23'0 0.0
2019-Jan-15 03:30N 47°40' W 122°23'0 0.0
2019-Jan-15 03:00N 47°40' W 122°23'0 0.0
2019-Jan-15 02:30N 47°40' W 122°23'0 0.0
2019-Jan-15 02:00N 47°40' W 122°23'0 0.0
2019-Jan-15 01:30N 47°40' W 122°23'0 0.0
2019-Jan-15 01:00N 47°40' W 122°23'0 0.0
2019-Jan-15 00:30N 47°40' W 122°23'0 0.0
2019-Jan-15 00:00N 47°40' W 122°23'0 0.0
2019-Jan-14 23:30N 47°40' W 122°23'0 0.0
2019-Jan-14 23:00N 47°40' W 122°23'0 0.0
2019-Jan-14 22:30N 47°40' W 122°23'0 0.0
2019-Jan-14 22:00N 47°40' W 122°23'0 0.0
2019-Jan-14 21:30N 47°40' W 122°23'0 0.0
2019-Jan-14 21:00N 47°40' W 122°23'0 0.0
2019-Jan-14 20:30N 47°40' W 122°23'0 0.0
2019-Jan-14 20:00N 47°40' W 122°23'0 0.0
2019-Jan-14 19:30N 47°40' W 122°23'0 0.0
2019-Jan-14 19:00N 47°40' W 122°23'0 0.0
2019-Jan-14 18:30N 47°40' W 122°23'0 0.0
2019-Jan-14 18:00N 47°40' W 122°23'0 0.0
2019-Jan-14 17:30N 47°40' W 122°23'0 0.0
2019-Jan-14 17:00N 47°40' W 122°23'0 0.0
2019-Jan-14 16:30N 47°40' W 122°23'0 0.0
2019-Jan-14 16:00N 47°40' W 122°23'0 0.0
2019-Jan-14 15:30N 47°40' W 122°23'0 0.0
2019-Jan-14 15:00N 47°40' W 122°23'0 0.0
2019-Jan-14 14:30N 47°40' W 122°23'0 0.0
2019-Jan-14 14:00N 47°40' W 122°23'0 0.0
2019-Jan-14 13:30N 47°40' W 122°23'0 0.0
2019-Jan-14 13:00N 47°40' W 122°23'0 0.0
2019-Jan-14 12:30N 47°40' W 122°23'0 0.0
2019-Jan-14 12:00N 47°40' W 122°23'0 0.0
2019-Jan-14 11:30N 47°40' W 122°23'0 0.0
2019-Jan-14 11:00N 47°40' W 122°23'0 0.0
2019-Jan-14 10:30N 47°40' W 122°23'0 0.0
2019-Jan-14 10:00N 47°40' W 122°23'0 0.0
2019-Jan-14 09:30N 47°40' W 122°23'0 0.0
2019-Jan-14 09:00N 47°40' W 122°23'0 0.0
2019-Jan-14 08:30N 47°40' W 122°23'0 0.0
2019-Jan-14 08:00N 47°40' W 122°23'0 0.0
2019-Jan-14 07:30N 47°40' W 122°23'0 0.0
2019-Jan-14 07:00N 47°40' W 122°23'0 0.0
2019-Jan-14 06:30N 47°40' W 122°23'0 0.0
2019-Jan-14 06:00N 47°40' W 122°23'0 0.0
2019-Jan-14 05:30N 47°40' W 122°23'0 0.0
2019-Jan-14 05:00N 47°40' W 122°23'0 0.0
2019-Jan-14 04:30N 47°40' W 122°23'0 0.0
2019-Jan-14 04:00N 47°40' W 122°23'0 0.0
2019-Jan-14 03:30N 47°40' W 122°23'0 0.0
2019-Jan-14 03:00N 47°40' W 122°23'0 0.0
2019-Jan-14 02:30N 47°40' W 122°23'0 0.0
2019-Jan-14 02:00N 47°40' W 122°23'0 0.0
2019-Jan-14 01:30N 47°40' W 122°23'0 0.0
2019-Jan-14 01:00N 47°40' W 122°23'0 0.0
2019-Jan-14 00:30N 47°40' W 122°23'0 0.0
2019-Jan-14 00:00N 47°40' W 122°23'0 0.0
2019-Jan-13 23:30N 47°40' W 122°23'0 0.0
2019-Jan-13 23:00N 47°40' W 122°23'0 0.0
2019-Jan-13 22:30N 47°40' W 122°23'0 0.0
2019-Jan-13 22:00N 47°40' W 122°23'0 0.0
2019-Jan-13 21:30N 47°40' W 122°23'0 0.0
2019-Jan-13 21:00N 47°40' W 122°23'0 0.0
2019-Jan-13 20:30N 47°40' W 122°23'0 0.0
2019-Jan-13 20:00N 47°40' W 122°23'0 0.0
2019-Jan-13 19:30N 47°40' W 122°23'0 0.0
2019-Jan-13 19:00N 47°40' W 122°23'0 0.0
2019-Jan-13 18:30N 47°40' W 122°23'0 0.0
2019-Jan-13 18:00N 47°40' W 122°23'0 0.0
2019-Jan-13 17:30N 47°40' W 122°23'0 0.0
2019-Jan-13 17:00N 47°40' W 122°23'0 0.0
2019-Jan-13 16:30N 47°40' W 122°23'0 0.0
2019-Jan-13 16:00N 47°40' W 122°23'0 0.0
2019-Jan-13 15:30N 47°40' W 122°23'0 0.0
2019-Jan-13 15:00N 47°40' W 122°23'0 0.0
2019-Jan-13 14:30N 47°40' W 122°23'0 0.0
2019-Jan-13 14:00N 47°40' W 122°23'0 0.0
2019-Jan-13 13:30N 47°40' W 122°23'0 0.0
2019-Jan-13 13:00N 47°40' W 122°23'0 0.0
2019-Jan-13 12:30N 47°40' W 122°23'0 0.0
2019-Jan-13 12:00N 47°40' W 122°23'0 0.0
2019-Jan-13 11:30N 47°40' W 122°23'0 0.0
2019-Jan-13 11:00N 47°40' W 122°23'0 0.0
2019-Jan-13 10:30N 47°40' W 122°23'0 0.0
2019-Jan-13 10:00N 47°40' W 122°23'0 0.0
2019-Jan-13 09:30N 47°40' W 122°23'0 0.0
2019-Jan-13 09:00N 47°40' W 122°23'0 0.0
2019-Jan-13 08:30N 47°40' W 122°23'0 0.0
2019-Jan-13 08:00N 47°40' W 122°23'0 0.0
2019-Jan-13 07:30N 47°40' W 122°23'0 0.0
2019-Jan-13 07:00N 47°40' W 122°23'0 0.0
2019-Jan-13 06:30N 47°40' W 122°23'0 0.0
2019-Jan-13 06:00N 47°40' W 122°23'0 0.0
2019-Jan-13 05:30N 47°40' W 122°23'0 0.0
2019-Jan-13 05:00N 47°40' W 122°23'0 0.0
2019-Jan-13 04:30N 47°40' W 122°23'0 0.0
2019-Jan-13 04:00N 47°40' W 122°23'0 0.0
2019-Jan-13 03:30N 47°40' W 122°23'0 0.0
2019-Jan-13 03:00N 47°40' W 122°23'0 0.0
2019-Jan-13 02:30N 47°40' W 122°23'0 0.0
2019-Jan-13 02:00N 47°40' W 122°23'0 0.0
2019-Jan-13 01:30N 47°40' W 122°23'0 0.0
2019-Jan-13 01:00N 47°40' W 122°23'0 0.0
2019-Jan-13 00:30N 47°40' W 122°23'0 0.0
2019-Jan-13 00:00N 47°40' W 122°23'0 0.0
2019-Jan-12 23:30N 47°40' W 122°23'0 0.0
2019-Jan-12 23:00N 47°40' W 122°23'0 0.0
2019-Jan-12 22:30N 47°40' W 122°23'0 0.0
2019-Jan-12 22:00N 47°40' W 122°23'0 0.0
2019-Jan-12 21:30N 47°40' W 122°23'0 0.0
2019-Jan-12 21:00N 47°40' W 122°23'0 0.0
2019-Jan-12 20:30N 47°40' W 122°23'0 0.0
2019-Jan-12 20:00N 47°40' W 122°23'0 0.0
2019-Jan-12 19:30N 47°40' W 122°23'0 0.0
2019-Jan-12 19:00N 47°40' W 122°23'0 0.0
2019-Jan-12 18:30N 47°40' W 122°23'0 0.0
2019-Jan-12 18:00N 47°40' W 122°23'0 0.0
2019-Jan-12 17:30N 47°40' W 122°23'0 0.0
2019-Jan-12 17:00N 47°40' W 122°23'0 0.0
2019-Jan-12 16:30N 47°40' W 122°23'0 0.0
2019-Jan-12 16:00N 47°40' W 122°23'0 0.0
2019-Jan-12 15:30N 47°40' W 122°23'0 0.0
2019-Jan-12 15:00N 47°40' W 122°23'0 0.0
2019-Jan-12 14:30N 47°40' W 122°23'0 0.0
2019-Jan-12 14:00N 47°40' W 122°23'0 0.0
2019-Jan-12 13:30N 47°40' W 122°23'0 0.0
2019-Jan-12 13:00N 47°40' W 122°23'0 0.0
2019-Jan-12 12:30N 47°40' W 122°23'0 0.0
2019-Jan-12 12:00N 47°40' W 122°23'0 0.0
2019-Jan-12 11:30N 47°40' W 122°23'0 0.0
2019-Jan-12 11:00N 47°40' W 122°23'0 0.0
2019-Jan-12 10:30N 47°40' W 122°23'0 0.0
2019-Jan-12 10:00N 47°40' W 122°23'0 0.0
2019-Jan-12 09:30N 47°40' W 122°23'0 0.0
2019-Jan-12 09:00N 47°40' W 122°23'0 0.0
2019-Jan-12 08:30N 47°40' W 122°23'0 0.0
2019-Jan-12 08:00N 47°40' W 122°23'0 0.0
2019-Jan-12 07:30N 47°40' W 122°23'0 0.0
2019-Jan-12 07:00N 47°40' W 122°23'0 0.0
2019-Jan-12 06:30N 47°40' W 122°23'0 0.0
2019-Jan-12 06:00N 47°40' W 122°23'0 0.0
2019-Jan-12 05:30N 47°40' W 122°23'0 0.0
2019-Jan-12 05:00N 47°40' W 122°23'0 0.0
2019-Jan-12 04:30N 47°40' W 122°23'0 0.0
2019-Jan-12 04:00N 47°40' W 122°23'0 0.0
2019-Jan-12 03:00N 47°40' W 122°23'0 0.0
2019-Jan-12 02:30N 47°40' W 122°23'0 0.0
2019-Jan-12 02:00N 47°40' W 122°23'0 0.0
2019-Jan-12 01:30N 47°40' W 122°23'0 0.0
2019-Jan-12 01:00N 47°40' W 122°23'0 0.0
2019-Jan-12 00:30N 47°40' W 122°23'0 0.0
2019-Jan-12 00:00N 47°40' W 122°23'0 0.0
2019-Jan-11 23:30N 47°40' W 122°23'0 0.0
2019-Jan-11 23:00N 47°40' W 122°23'0 0.0
2019-Jan-11 22:30N 47°40' W 122°23'0 0.0
2019-Jan-11 22:00N 47°40' W 122°23'0 0.0
2019-Jan-11 21:30N 47°40' W 122°23'0 0.0
2019-Jan-11 21:00N 47°40' W 122°23'0 0.0
2019-Jan-11 20:30N 47°40' W 122°23'0 0.0
2019-Jan-11 20:01N 47°40' W 122°23'1 1.3
2019-Jan-11 19:30N 47°40' W 122°23'0 0.0
2019-Jan-11 19:00N 47°40' W 122°23'0 0.0
2019-Jan-11 18:30N 47°40' W 122°23'0 0.0
2019-Jan-11 18:00N 47°40' W 122°23'0 0.0
2019-Jan-11 17:30N 47°40' W 122°23'0 0.0
2019-Jan-11 17:00N 47°40' W 122°23'0 0.0
2019-Jan-11 16:30N 47°40' W 122°23'0 0.0
2019-Jan-11 16:00N 47°40' W 122°23'0 0.0
2019-Jan-11 15:30N 47°40' W 122°23'1 1.2
2019-Jan-11 15:00N 47°40' W 122°23'0 0.0
2019-Jan-11 14:30N 47°40' W 122°23'0 0.0
2019-Jan-11 14:00N 47°40' W 122°23'0 0.0
2019-Jan-11 13:30N 47°40' W 122°23'0 0.0
2019-Jan-11 13:00N 47°40' W 122°23'0 0.0
2019-Jan-11 12:30N 47°40' W 122°23'0 0.0
2019-Jan-11 12:00N 47°40' W 122°23'0 0.0
2019-Jan-11 11:30N 47°40' W 122°23'0 0.0
2019-Jan-11 11:00N 47°40' W 122°23'0 0.0
2019-Jan-11 10:30N 47°40' W 122°23'0 0.0
2019-Jan-11 10:00N 47°40' W 122°23'0 0.0
2019-Jan-11 09:30N 47°40' W 122°23'0 0.0
2019-Jan-11 09:00N 47°40' W 122°23'0 0.0
2019-Jan-11 08:30N 47°40' W 122°23'0 0.0
2019-Jan-11 08:00N 47°40' W 122°23'0 0.0
2019-Jan-11 07:30N 47°40' W 122°23'0 0.0
2019-Jan-11 07:00N 47°40' W 122°23'0 0.0
2019-Jan-11 06:30N 47°40' W 122°23'0 0.0
2019-Jan-11 06:00N 47°40' W 122°23'0 0.0
2019-Jan-11 05:30N 47°40' W 122°23'0 0.0
2019-Jan-11 05:00N 47°40' W 122°23'0 0.0
2019-Jan-11 04:30N 47°40' W 122°23'0 0.0
2019-Jan-11 04:00N 47°40' W 122°23'0 0.0
2019-Jan-11 03:30N 47°40' W 122°23'0 0.0
2019-Jan-11 03:00N 47°40' W 122°23'0 0.0
2019-Jan-11 02:30N 47°40' W 122°23'0 0.0
2019-Jan-11 02:00N 47°40' W 122°23'0 0.0
2019-Jan-11 01:30N 47°40' W 122°23'0 0.0
2019-Jan-11 01:00N 47°40' W 122°23'0 0.0
2019-Jan-11 00:30N 47°40' W 122°23'0 0.0
2019-Jan-11 00:00N 47°40' W 122°23'0 0.0
2019-Jan-10 23:30N 47°40' W 122°23'0 0.0
2019-Jan-10 23:00N 47°40' W 122°23'0 0.0
2019-Jan-10 22:30N 47°40' W 122°23'0 0.0
2019-Jan-10 22:00N 47°40' W 122°23'0 0.0
2019-Jan-10 21:30N 47°40' W 122°23'0 0.0
2019-Jan-10 21:00N 47°40' W 122°23'0 0.0
2019-Jan-10 20:30N 47°40' W 122°23'0 0.0
2019-Jan-10 20:00N 47°40' W 122°23'0 0.0
2019-Jan-10 19:30N 47°40' W 122°23'0 0.0
2019-Jan-10 19:00N 47°40' W 122°23'0 0.0
2019-Jan-10 18:30N 47°40' W 122°23'0 0.0
2019-Jan-10 18:00N 47°40' W 122°23'0 0.0
2019-Jan-10 17:30N 47°40' W 122°23'0 0.0
2019-Jan-10 17:00N 47°40' W 122°23'0 0.0
2019-Jan-10 16:30N 47°40' W 122°23'0 0.0
2019-Jan-10 16:00N 47°40' W 122°23'0 0.0
2019-Jan-10 15:30N 47°40' W 122°23'0 0.0
2019-Jan-10 15:00N 47°40' W 122°23'0 0.0
2019-Jan-10 14:30N 47°40' W 122°23'0 0.0
2019-Jan-10 14:00N 47°40' W 122°23'0 0.0
2019-Jan-10 13:30N 47°40' W 122°23'0 0.0
2019-Jan-10 13:00N 47°40' W 122°23'0 0.0
2019-Jan-10 12:30N 47°40' W 122°23'0 0.0
2019-Jan-10 12:00N 47°40' W 122°23'0 0.0
2019-Jan-10 11:30N 47°40' W 122°23'0 0.0
2019-Jan-10 11:00N 47°40' W 122°23'0 0.0
2019-Jan-10 10:30N 47°40' W 122°23'0 0.0
2019-Jan-10 10:00N 47°40' W 122°23'0 0.0
2019-Jan-10 09:30N 47°40' W 122°23'0 0.0
2019-Jan-10 09:00N 47°40' W 122°23'0 0.0
2019-Jan-10 08:30N 47°40' W 122°23'0 0.0
2019-Jan-10 08:00N 47°40' W 122°23'0 0.0
2019-Jan-10 07:30N 47°40' W 122°23'0 0.0
2019-Jan-10 07:00N 47°40' W 122°23'0 0.0
2019-Jan-10 06:30N 47°40' W 122°23'0 0.0
2019-Jan-10 06:00N 47°40' W 122°23'0 0.0
2019-Jan-10 05:30N 47°40' W 122°23'0 0.0
2019-Jan-10 05:00N 47°40' W 122°23'0 0.0
2019-Jan-10 04:30N 47°40' W 122°23'0 0.0
2019-Jan-10 04:00N 47°40' W 122°23'0 0.0
2019-Jan-10 03:30N 47°40' W 122°23'0 0.0
2019-Jan-10 03:00N 47°40' W 122°23'0 0.0
2019-Jan-10 02:30N 47°40' W 122°23'0 0.0
2019-Jan-10 02:00N 47°40' W 122°23'0 0.0
2019-Jan-10 01:30N 47°40' W 122°23'0 0.0
2019-Jan-10 01:00N 47°40' W 122°23'0 0.0
2019-Jan-10 00:30N 47°40' W 122°23'0 0.0
2019-Jan-10 00:00N 47°40' W 122°23'0 0.0
2019-Jan-09 23:30N 47°40' W 122°23'0 0.0
2019-Jan-09 23:00N 47°40' W 122°23'0 0.0
2019-Jan-09 22:30N 47°40' W 122°23'0 0.0
2019-Jan-09 22:00N 47°40' W 122°23'0 0.0
2019-Jan-09 21:30N 47°40' W 122°23'0 0.0
2019-Jan-09 21:00N 47°40' W 122°23'0 0.0
2019-Jan-09 20:30N 47°40' W 122°23'0 0.0
2019-Jan-09 20:00N 47°40' W 122°23'0 0.0
2019-Jan-09 19:30N 47°40' W 122°23'0 0.0
2019-Jan-09 19:00N 47°40' W 122°23'0 0.0
2019-Jan-09 18:30N 47°40' W 122°23'0 0.0
2019-Jan-09 18:00N 47°40' W 122°23'0 0.0
2019-Jan-09 17:30N 47°40' W 122°23'0 0.0
2019-Jan-09 17:00N 47°40' W 122°23'0 0.0
2019-Jan-09 16:30N 47°40' W 122°23'0 0.0
2019-Jan-09 16:00N 47°40' W 122°23'0 0.0
2019-Jan-09 15:30N 47°40' W 122°23'0 0.0
2019-Jan-09 15:00N 47°40' W 122°23'0 0.0
2019-Jan-09 14:30N 47°40' W 122°23'0 0.0
2019-Jan-09 14:00N 47°40' W 122°23'0 0.0
2019-Jan-09 13:30N 47°40' W 122°23'0 0.0
2019-Jan-09 13:00N 47°40' W 122°23'0 0.0
2019-Jan-09 12:30N 47°40' W 122°23'0 0.0
2019-Jan-09 12:00N 47°40' W 122°23'0 0.0
2019-Jan-09 11:30N 47°40' W 122°23'0 0.0
2019-Jan-09 11:00N 47°40' W 122°23'0 0.0
2019-Jan-09 10:30N 47°40' W 122°23'0 0.0
2019-Jan-09 10:00N 47°40' W 122°23'0 0.0
2019-Jan-09 09:30N 47°40' W 122°23'0 0.0
2019-Jan-09 09:00N 47°40' W 122°23'0 0.0
2019-Jan-09 08:30N 47°40' W 122°23'0 0.0
2019-Jan-09 08:00N 47°40' W 122°23'0 0.0
2019-Jan-09 07:30N 47°40' W 122°23'0 0.0
2019-Jan-09 07:00N 47°40' W 122°23'0 0.0
2019-Jan-09 06:30N 47°40' W 122°23'0 0.0
2019-Jan-09 06:00N 47°40' W 122°23'0 0.0
2019-Jan-09 05:30N 47°40' W 122°23'0 0.0
2019-Jan-09 05:00N 47°40' W 122°23'0 0.0
2019-Jan-09 04:30N 47°40' W 122°23'0 0.0
2019-Jan-09 04:00N 47°40' W 122°23'0 0.0
2019-Jan-09 03:30N 47°40' W 122°23'0 0.0
2019-Jan-09 03:00N 47°40' W 122°23'0 0.0
2019-Jan-09 02:30N 47°40' W 122°23'0 0.0
2019-Jan-09 02:00N 47°40' W 122°23'0 0.0
2019-Jan-09 01:30N 47°40' W 122°23'0 0.0
2019-Jan-09 01:00N 47°40' W 122°23'0 0.0
2019-Jan-09 00:30N 47°40' W 122°23'0 0.0
2019-Jan-09 00:00N 47°40' W 122°23'0 0.0
2019-Jan-08 23:30N 47°40' W 122°23'0 0.0
2019-Jan-08 23:00N 47°40' W 122°23'0 0.0
2019-Jan-08 22:30N 47°40' W 122°23'0 0.0
2019-Jan-08 22:00N 47°40' W 122°23'0 0.0
2019-Jan-08 21:30N 47°40' W 122°23'0 0.0
2019-Jan-08 21:00N 47°40' W 122°23'0 0.0
2019-Jan-08 20:30N 47°40' W 122°23'0 0.0
2019-Jan-08 20:00N 47°40' W 122°23'0 0.0
2019-Jan-08 19:30N 47°40' W 122°23'0 0.0
2019-Jan-08 19:00N 47°40' W 122°23'0 0.0
2019-Jan-08 18:30N 47°40' W 122°23'0 0.0
2019-Jan-08 18:00N 47°40' W 122°23'0 0.0
2019-Jan-08 17:30N 47°40' W 122°23'0 0.0
2019-Jan-08 17:00N 47°40' W 122°23'0 0.0
2019-Jan-08 16:30N 47°40' W 122°23'0 0.0
2019-Jan-08 16:00N 47°40' W 122°23'0 0.0
2019-Jan-08 15:30N 47°40' W 122°23'0 0.0
2019-Jan-08 15:00N 47°40' W 122°23'0 0.0
2019-Jan-08 14:30N 47°40' W 122°23'0 0.0
2019-Jan-08 14:00N 47°40' W 122°23'0 0.0
2019-Jan-08 13:30N 47°40' W 122°23'0 0.0
2019-Jan-08 13:00N 47°40' W 122°23'0 0.0
2019-Jan-08 12:30N 47°40' W 122°23'0 0.0
2019-Jan-08 12:00N 47°40' W 122°23'0 0.0
2019-Jan-08 11:30N 47°40' W 122°23'0 0.0
2019-Jan-08 11:00N 47°40' W 122°23'0 0.0
2019-Jan-08 10:30N 47°40' W 122°23'0 0.0
2019-Jan-08 10:00N 47°40' W 122°23'0 0.0
2019-Jan-08 09:30N 47°40' W 122°23'0 0.0
2019-Jan-08 09:00N 47°40' W 122°23'0 0.0
2019-Jan-08 08:30N 47°40' W 122°23'  
Track history (hours):
 
Tides and Currents Weather Stations Pressure Air Temp Water Temp Dewpoint Dewpoint Depression Visibility Wind Speed Wind Dir Waves Ship Positions

Misty Dawn

Owner: Katahdin, Inc., Seattle, WA. More information available from US FCC via Universal Licensing System and Coast Guard Vessel Documentation Center.

Last reported at 2019-Jan-18 08:18 UTC. Time now 2019-Mar-25 10:23 UTC.
Position N 49°10' W 126°37'.
Warning: this ship's position is months out of date.

Length 22 m; draft 25.5 m.

MMSI: 367082010.

Date/timePositionNaut miles runAvg speedWind from/ knotsBaromVisibWave heightAir tempDewpointWater temp
2019-Jan-18 08:18N 49°10' W 126°37'410.3
2019-Jan-18 07:56N 49°08' W 126°32'510.2
2019-Jan-18 07:29N 49°06' W 126°26'510.6
2019-Jan-18 07:00N 49°03' W 126°19'510.6
2019-Jan-18 06:30N 49°01' W 126°12'510.6
2019-Jan-18 06:00N 48°58' W 126°05'510.6
2019-Jan-18 05:31N 48°55' W 125°58'510.2
2019-Jan-18 05:00N 48°53' W 125°51'5 9.8
2019-Jan-18 04:31N 48°50' W 125°45'510.1
2019-Jan-18 04:00N 48°47' W 125°38'510.3
2019-Jan-18 03:31N 48°45' W 125°32'510.1
2019-Jan-18 03:00N 48°42' W 125°25'510.6
2019-Jan-18 02:30N 48°40' W 125°18'510.9
2019-Jan-18 02:00N 48°37' W 125°11'510.2
2019-Jan-18 01:30N 48°34' W 125°04'610.8
2019-Jan-18 01:00N 48°32' W 124°57'510.6
2019-Jan-18 00:30N 48°29' W 124°50'611.3
2019-Jan-18 00:00N 48°26' W 124°43'3 6.7
2019-Jan-17 23:30N 48°25' W 124°38'3 6.6
2019-Jan-17 23:01N 48°22' W 124°37'0 0.2
2019-Jan-17 22:30N 48°22' W 124°37'0 0.0
2019-Jan-17 22:00N 48°22' W 124°37'0 0.0
2019-Jan-17 21:30N 48°22' W 124°37'0 0.0
2019-Jan-17 21:00N 48°22' W 124°37'0 0.0
2019-Jan-17 20:30N 48°22' W 124°37'0 0.0
2019-Jan-17 20:00N 48°22' W 124°37'0 0.0
2019-Jan-17 19:30N 48°22' W 124°37'0 0.0
2019-Jan-17 19:00N 48°22' W 124°37'0 0.0
2019-Jan-17 18:30N 48°22' W 124°37'0 0.0
2019-Jan-17 18:00N 48°22' W 124°37'0 0.0
2019-Jan-17 17:30N 48°22' W 124°37'0 0.0
2019-Jan-17 17:00N 48°22' W 124°37'0 0.0
2019-Jan-17 16:30N 48°22' W 124°37'0 0.0
2019-Jan-17 16:00N 48°22' W 124°37'0 0.0
2019-Jan-17 15:30N 48°22' W 124°37'0 0.0
2019-Jan-17 15:00N 48°22' W 124°37'0 0.0
2019-Jan-17 14:30N 48°22' W 124°37'0 0.0
2019-Jan-17 14:00N 48°22' W 124°37'0 0.0
2019-Jan-17 13:30N 48°22' W 124°37'0 0.9
2019-Jan-17 13:00N 48°22' W 124°36'5 9.7
2019-Jan-17 12:30N 48°21' W 124°29'510.2
2019-Jan-17 12:00N 48°19' W 124°22'510.3
2019-Jan-17 11:30N 48°17' W 124°15'510.4
2019-Jan-17 11:00N 48°15' W 124°08'5 9.7
2019-Jan-17 10:30N 48°13' W 124°01'5 9.4
2019-Jan-17 09:59N 48°11' W 123°54'5 9.2
2019-Jan-17 09:23N 48°11' W 123°46'13 8.6
2019-Jan-17 07:56N 48°10' W 123°27'5 8.9
2019-Jan-17 07:24N 48°10' W 123°20'4 8.6
2019-Jan-17 06:56N 48°10' W 123°14'5 9.0
2019-Jan-17 06:24N 48°12' W 123°07'4 8.3
2019-Jan-17 05:56N 48°11' W 123°02'25 8.5
2019-Jan-17 02:59N 47°57' W 122°31'5 9.7
2019-Jan-17 02:30N 47°53' W 122°27'510.0
2019-Jan-17 02:00N 47°48' W 122°26'510.0
2019-Jan-17 01:30N 47°43' W 122°25'3 5.9
2019-Jan-17 01:00N 47°40' W 122°24'1 1.5
2019-Jan-17 00:30N 47°40' W 122°23'0 0.0
2019-Jan-17 00:00N 47°40' W 122°23'0 0.0
2019-Jan-16 23:30N 47°40' W 122°23'0 0.0
2019-Jan-16 23:00N 47°40' W 122°23'0 0.0
2019-Jan-16 22:30N 47°40' W 122°23'0 0.0
2019-Jan-16 22:00N 47°40' W 122°23'0 0.0
2019-Jan-16 21:30N 47°40' W 122°23'0 0.0
2019-Jan-16 21:00N 47°40' W 122°23'0 0.0
2019-Jan-16 20:30N 47°40' W 122°23'0 0.0
2019-Jan-16 20:00N 47°40' W 122°23'0 0.0
2019-Jan-16 19:30N 47°40' W 122°23'0 0.0
2019-Jan-16 19:00N 47°40' W 122°23'0 0.0
2019-Jan-16 18:30N 47°40' W 122°23'0 0.0
2019-Jan-16 18:00N 47°40' W 122°23'0 0.0
2019-Jan-16 17:30N 47°40' W 122°23'0 0.0
2019-Jan-16 17:00N 47°40' W 122°23'0 0.0
2019-Jan-16 16:30N 47°40' W 122°23'0 0.0
2019-Jan-16 16:00N 47°40' W 122°23'0 0.0
2019-Jan-16 15:30N 47°40' W 122°23'0 0.0
2019-Jan-16 15:00N 47°40' W 122°23'0 0.0
2019-Jan-16 14:30N 47°40' W 122°23'0 0.0
2019-Jan-16 14:00N 47°40' W 122°23'0 0.0
2019-Jan-16 13:30N 47°40' W 122°23'0 0.0
2019-Jan-16 13:00N 47°40' W 122°23'0 0.0
2019-Jan-16 12:30N 47°40' W 122°23'0 0.0
2019-Jan-16 12:00N 47°40' W 122°23'0 0.0
2019-Jan-16 11:30N 47°40' W 122°23'0 0.0
2019-Jan-16 11:00N 47°40' W 122°23'0 0.0
2019-Jan-16 10:30N 47°40' W 122°23'0 0.0
2019-Jan-16 10:00N 47°40' W 122°23'0 0.0
2019-Jan-16 09:30N 47°40' W 122°23'0 0.0
2019-Jan-16 09:00N 47°40' W 122°23'0 0.0
2019-Jan-16 08:30N 47°40' W 122°23'0 0.0
2019-Jan-16 08:00N 47°40' W 122°23'0 0.0
2019-Jan-16 07:30N 47°40' W 122°23'0 0.0
2019-Jan-16 07:00N 47°40' W 122°23'0 0.0
2019-Jan-16 06:30N 47°40' W 122°23'0 0.0
2019-Jan-16 06:00N 47°40' W 122°23'0 0.0
2019-Jan-16 05:30N 47°40' W 122°23'0 0.0
2019-Jan-16 05:00N 47°40' W 122°23'0 0.0
2019-Jan-16 04:30N 47°40' W 122°23'0 0.0
2019-Jan-16 04:00N 47°40' W 122°23'0 0.0
2019-Jan-16 03:30N 47°40' W 122°23'0 0.0
2019-Jan-16 03:00N 47°40' W 122°23'0 0.0
2019-Jan-16 02:30N 47°40' W 122°23'0 0.0
2019-Jan-16 02:00N 47°40' W 122°23'0 0.0
2019-Jan-16 01:30N 47°40' W 122°23'0 0.0
2019-Jan-16 01:00N 47°40' W 122°23'0 0.0
2019-Jan-16 00:30N 47°40' W 122°23'0 0.0
2019-Jan-16 00:00N 47°40' W 122°23'0 0.0
2019-Jan-15 23:30N 47°40' W 122°23'0 0.0
2019-Jan-15 23:00N 47°40' W 122°23'0 0.0
2019-Jan-15 22:30N 47°40' W 122°23'0 0.0
2019-Jan-15 22:00N 47°40' W 122°23'0 0.0
2019-Jan-15 21:30N 47°40' W 122°23'0 0.0
2019-Jan-15 21:00N 47°40' W 122°23'0 0.0
2019-Jan-15 20:30N 47°40' W 122°23'0 0.0
2019-Jan-15 20:00N 47°40' W 122°23'0 0.0
2019-Jan-15 19:30N 47°40' W 122°23'0 0.0
2019-Jan-15 19:00N 47°40' W 122°23'0 0.0
2019-Jan-15 18:30N 47°40' W 122°23'0 0.0
2019-Jan-15 18:00N 47°40' W 122°23'0 0.0
2019-Jan-15 17:30N 47°40' W 122°23'0 0.0
2019-Jan-15 17:00N 47°40' W 122°23'0 0.0
2019-Jan-15 16:30N 47°40' W 122°23'0 0.0
2019-Jan-15 16:00N 47°40' W 122°23'0 0.0
2019-Jan-15 15:30N 47°40' W 122°23'0 0.0
2019-Jan-15 15:00N 47°40' W 122°23'0 0.0
2019-Jan-15 14:30N 47°40' W 122°23'0 0.0
2019-Jan-15 14:00N 47°40' W 122°23'0 0.0
2019-Jan-15 13:30N 47°40' W 122°23'0 0.0
2019-Jan-15 13:00N 47°40' W 122°23'0 0.0
2019-Jan-15 12:30N 47°40' W 122°23'0 0.0
2019-Jan-15 12:00N 47°40' W 122°23'0 0.0
2019-Jan-15 11:30N 47°40' W 122°23'0 0.0
2019-Jan-15 11:00N 47°40' W 122°23'0 0.0
2019-Jan-15 10:30N 47°40' W 122°23'0 0.0
2019-Jan-15 10:00N 47°40' W 122°23'0 0.0
2019-Jan-15 09:30N 47°40' W 122°23'0 0.0
2019-Jan-15 09:00N 47°40' W 122°23'0 0.0
2019-Jan-15 08:30N 47°40' W 122°23'0 0.0
2019-Jan-15 08:00N 47°40' W 122°23'0 0.0
2019-Jan-15 07:30N 47°40' W 122°23'0 0.0
2019-Jan-15 07:00N 47°40' W 122°23'0 0.0
2019-Jan-15 06:30N 47°40' W 122°23'0 0.0
2019-Jan-15 06:00N 47°40' W 122°23'0 0.0
2019-Jan-15 05:30N 47°40' W 122°23'0 0.0
2019-Jan-15 05:00N 47°40' W 122°23'0 0.0
2019-Jan-15 04:30N 47°40' W 122°23'0 0.0
2019-Jan-15 04:00N 47°40' W 122°23'0 0.0
2019-Jan-15 03:30N 47°40' W 122°23'0 0.0
2019-Jan-15 03:00N 47°40' W 122°23'0 0.0
2019-Jan-15 02:30N 47°40' W 122°23'0 0.0
2019-Jan-15 02:00N 47°40' W 122°23'0 0.0
2019-Jan-15 01:30N 47°40' W 122°23'0 0.0
2019-Jan-15 01:00N 47°40' W 122°23'0 0.0
2019-Jan-15 00:30N 47°40' W 122°23'0 0.0
2019-Jan-15 00:00N 47°40' W 122°23'0 0.0
2019-Jan-14 23:30N 47°40' W 122°23'0 0.0
2019-Jan-14 23:00N 47°40' W 122°23'0 0.0
2019-Jan-14 22:30N 47°40' W 122°23'0 0.0
2019-Jan-14 22:00N 47°40' W 122°23'0 0.0
2019-Jan-14 21:30N 47°40' W 122°23'0 0.0
2019-Jan-14 21:00N 47°40' W 122°23'0 0.0
2019-Jan-14 20:30N 47°40' W 122°23'0 0.0
2019-Jan-14 20:00N 47°40' W 122°23'0 0.0
2019-Jan-14 19:30N 47°40' W 122°23'0 0.0
2019-Jan-14 19:00N 47°40' W 122°23'0 0.0
2019-Jan-14 18:30N 47°40' W 122°23'0 0.0
2019-Jan-14 18:00N 47°40' W 122°23'0 0.0
2019-Jan-14 17:30N 47°40' W 122°23'0 0.0
2019-Jan-14 17:00N 47°40' W 122°23'0 0.0
2019-Jan-14 16:30N 47°40' W 122°23'0 0.0
2019-Jan-14 16:00N 47°40' W 122°23'0 0.0
2019-Jan-14 15:30N 47°40' W 122°23'0 0.0
2019-Jan-14 15:00N 47°40' W 122°23'0 0.0
2019-Jan-14 14:30N 47°40' W 122°23'0 0.0
2019-Jan-14 14:00N 47°40' W 122°23'0 0.0
2019-Jan-14 13:30N 47°40' W 122°23'0 0.0
2019-Jan-14 13:00N 47°40' W 122°23'0 0.0
2019-Jan-14 12:30N 47°40' W 122°23'0 0.0
2019-Jan-14 12:00N 47°40' W 122°23'0 0.0
2019-Jan-14 11:30N 47°40' W 122°23'0 0.0
2019-Jan-14 11:00N 47°40' W 122°23'0 0.0
2019-Jan-14 10:30N 47°40' W 122°23'0 0.0
2019-Jan-14 10:00N 47°40' W 122°23'0 0.0
2019-Jan-14 09:30N 47°40' W 122°23'0 0.0
2019-Jan-14 09:00N 47°40' W 122°23'0 0.0
2019-Jan-14 08:30N 47°40' W 122°23'0 0.0
2019-Jan-14 08:00N 47°40' W 122°23'0 0.0
2019-Jan-14 07:30N 47°40' W 122°23'0 0.0
2019-Jan-14 07:00N 47°40' W 122°23'0 0.0
2019-Jan-14 06:30N 47°40' W 122°23'0 0.0
2019-Jan-14 06:00N 47°40' W 122°23'0 0.0
2019-Jan-14 05:30N 47°40' W 122°23'0 0.0
2019-Jan-14 05:00N 47°40' W 122°23'0 0.0
2019-Jan-14 04:30N 47°40' W 122°23'0 0.0
2019-Jan-14 04:00N 47°40' W 122°23'0 0.0
2019-Jan-14 03:30N 47°40' W 122°23'0 0.0
2019-Jan-14 03:00N 47°40' W 122°23'0 0.0
2019-Jan-14 02:30N 47°40' W 122°23'0 0.0
2019-Jan-14 02:00N 47°40' W 122°23'0 0.0
2019-Jan-14 01:30N 47°40' W 122°23'0 0.0
2019-Jan-14 01:00N 47°40' W 122°23'0 0.0
2019-Jan-14 00:30N 47°40' W 122°23'0 0.0
2019-Jan-14 00:00N 47°40' W 122°23'0 0.0
2019-Jan-13 23:30N 47°40' W 122°23'0 0.0
2019-Jan-13 23:00N 47°40' W 122°23'0 0.0
2019-Jan-13 22:30N 47°40' W 122°23'0 0.0
2019-Jan-13 22:00N 47°40' W 122°23'0 0.0
2019-Jan-13 21:30N 47°40' W 122°23'0 0.0
2019-Jan-13 21:00N 47°40' W 122°23'0 0.0
2019-Jan-13 20:30N 47°40' W 122°23'0 0.0
2019-Jan-13 20:00N 47°40' W 122°23'0 0.0
2019-Jan-13 19:30N 47°40' W 122°23'0 0.0
2019-Jan-13 19:00N 47°40' W 122°23'0 0.0
2019-Jan-13 18:30N 47°40' W 122°23'0 0.0
2019-Jan-13 18:00N 47°40' W 122°23'0 0.0
2019-Jan-13 17:30N 47°40' W 122°23'0 0.0
2019-Jan-13 17:00N 47°40' W 122°23'0 0.0
2019-Jan-13 16:30N 47°40' W 122°23'0 0.0
2019-Jan-13 16:00N 47°40' W 122°23'0 0.0
2019-Jan-13 15:30N 47°40' W 122°23'0 0.0
2019-Jan-13 15:00N 47°40' W 122°23'0 0.0
2019-Jan-13 14:30N 47°40' W 122°23'0 0.0
2019-Jan-13 14:00N 47°40' W 122°23'0 0.0
2019-Jan-13 13:30N 47°40' W 122°23'0 0.0
2019-Jan-13 13:00N 47°40' W 122°23'0 0.0
2019-Jan-13 12:30N 47°40' W 122°23'0 0.0
2019-Jan-13 12:00N 47°40' W 122°23'0 0.0
2019-Jan-13 11:30N 47°40' W 122°23'0 0.0
2019-Jan-13 11:00N 47°40' W 122°23'0 0.0
2019-Jan-13 10:30N 47°40' W 122°23'0 0.0
2019-Jan-13 10:00N 47°40' W 122°23'0 0.0
2019-Jan-13 09:30N 47°40' W 122°23'0 0.0
2019-Jan-13 09:00N 47°40' W 122°23'0 0.0
2019-Jan-13 08:30N 47°40' W 122°23'0 0.0
2019-Jan-13 08:00N 47°40' W 122°23'0 0.0
2019-Jan-13 07:30N 47°40' W 122°23'0 0.0
2019-Jan-13 07:00N 47°40' W 122°23'0 0.0
2019-Jan-13 06:30N 47°40' W 122°23'0 0.0
2019-Jan-13 06:00N 47°40' W 122°23'0 0.0
2019-Jan-13 05:30N 47°40' W 122°23'0 0.0
2019-Jan-13 05:00N 47°40' W 122°23'0 0.0
2019-Jan-13 04:30N 47°40' W 122°23'0 0.0
2019-Jan-13 04:00N 47°40' W 122°23'0 0.0
2019-Jan-13 03:30N 47°40' W 122°23'0 0.0
2019-Jan-13 03:00N 47°40' W 122°23'0 0.0
2019-Jan-13 02:30N 47°40' W 122°23'0 0.0
2019-Jan-13 02:00N 47°40' W 122°23'0 0.0
2019-Jan-13 01:30N 47°40' W 122°23'0 0.0
2019-Jan-13 01:00N 47°40' W 122°23'0 0.0
2019-Jan-13 00:30N 47°40' W 122°23'0 0.0
2019-Jan-13 00:00N 47°40' W 122°23'0 0.0
2019-Jan-12 23:30N 47°40' W 122°23'0 0.0
2019-Jan-12 23:00N 47°40' W 122°23'0 0.0
2019-Jan-12 22:30N 47°40' W 122°23'0 0.0
2019-Jan-12 22:00N 47°40' W 122°23'0 0.0
2019-Jan-12 21:30N 47°40' W 122°23'0 0.0
2019-Jan-12 21:00N 47°40' W 122°23'0 0.0
2019-Jan-12 20:30N 47°40' W 122°23'0 0.0
2019-Jan-12 20:00N 47°40' W 122°23'0 0.0
2019-Jan-12 19:30N 47°40' W 122°23'0 0.0
2019-Jan-12 19:00N 47°40' W 122°23'0 0.0
2019-Jan-12 18:30N 47°40' W 122°23'0 0.0
2019-Jan-12 18:00N 47°40' W 122°23'0 0.0
2019-Jan-12 17:30N 47°40' W 122°23'0 0.0
2019-Jan-12 17:00N 47°40' W 122°23'0 0.0
2019-Jan-12 16:30N 47°40' W 122°23'0 0.0
2019-Jan-12 16:00N 47°40' W 122°23'0 0.0
2019-Jan-12 15:30N 47°40' W 122°23'0 0.0
2019-Jan-12 15:00N 47°40' W 122°23'0 0.0
2019-Jan-12 14:30N 47°40' W 122°23'0 0.0
2019-Jan-12 14:00N 47°40' W 122°23'0 0.0
2019-Jan-12 13:30N 47°40' W 122°23'0 0.0
2019-Jan-12 13:00N 47°40' W 122°23'0 0.0
2019-Jan-12 12:30N 47°40' W 122°23'0 0.0
2019-Jan-12 12:00N 47°40' W 122°23'0 0.0
2019-Jan-12 11:30N 47°40' W 122°23'0 0.0
2019-Jan-12 11:00N 47°40' W 122°23'0 0.0
2019-Jan-12 10:30N 47°40' W 122°23'0 0.0
2019-Jan-12 10:00N 47°40' W 122°23'0 0.0
2019-Jan-12 09:30N 47°40' W 122°23'0 0.0
2019-Jan-12 09:00N 47°40' W 122°23'0 0.0
2019-Jan-12 08:30N 47°40' W 122°23'0 0.0
2019-Jan-12 08:00N 47°40' W 122°23'0 0.0
2019-Jan-12 07:30N 47°40' W 122°23'0 0.0
2019-Jan-12 07:00N 47°40' W 122°23'0 0.0
2019-Jan-12 06:30N 47°40' W 122°23'0 0.0
2019-Jan-12 06:00N 47°40' W 122°23'0 0.0
2019-Jan-12 05:30N 47°40' W 122°23'0 0.0
2019-Jan-12 05:00N 47°40' W 122°23'0 0.0
2019-Jan-12 04:30N 47°40' W 122°23'0 0.0
2019-Jan-12 04:00N 47°40' W 122°23'0 0.0
2019-Jan-12 03:00N 47°40' W 122°23'0 0.0
2019-Jan-12 02:30N 47°40' W 122°23'0 0.0
2019-Jan-12 02:00N 47°40' W 122°23'0 0.0
2019-Jan-12 01:30N 47°40' W 122°23'0 0.0
2019-Jan-12 01:00N 47°40' W 122°23'0 0.0
2019-Jan-12 00:30N 47°40' W 122°23'0 0.0
2019-Jan-12 00:00N 47°40' W 122°23'0 0.0
2019-Jan-11 23:30N 47°40' W 122°23'0 0.0
2019-Jan-11 23:00N 47°40' W 122°23'0 0.0
2019-Jan-11 22:30N 47°40' W 122°23'0 0.0
2019-Jan-11 22:00N 47°40' W 122°23'0 0.0
2019-Jan-11 21:30N 47°40' W 122°23'0 0.0
2019-Jan-11 21:00N 47°40' W 122°23'0 0.0
2019-Jan-11 20:30N 47°40' W 122°23'0 0.0
2019-Jan-11 20:01N 47°40' W 122°23'1 1.3
2019-Jan-11 19:30N 47°40' W 122°23'0 0.0
2019-Jan-11 19:00N 47°40' W 122°23'0 0.0
2019-Jan-11 18:30N 47°40' W 122°23'0 0.0
2019-Jan-11 18:00N 47°40' W 122°23'0 0.0
2019-Jan-11 17:30N 47°40' W 122°23'0 0.0
2019-Jan-11 17:00N 47°40' W 122°23'0 0.0
2019-Jan-11 16:30N 47°40' W 122°23'0 0.0
2019-Jan-11 16:00N 47°40' W 122°23'0 0.0
2019-Jan-11 15:30N 47°40' W 122°23'1 1.2
2019-Jan-11 15:00N 47°40' W 122°23'0 0.0
2019-Jan-11 14:30N 47°40' W 122°23'0 0.0
2019-Jan-11 14:00N 47°40' W 122°23'0 0.0
2019-Jan-11 13:30N 47°40' W 122°23'0 0.0
2019-Jan-11 13:00N 47°40' W 122°23'0 0.0
2019-Jan-11 12:30N 47°40' W 122°23'0 0.0
2019-Jan-11 12:00N 47°40' W 122°23'0 0.0
2019-Jan-11 11:30N 47°40' W 122°23'0 0.0
2019-Jan-11 11:00N 47°40' W 122°23'0 0.0
2019-Jan-11 10:30N 47°40' W 122°23'0 0.0
2019-Jan-11 10:00N 47°40' W 122°23'0 0.0
2019-Jan-11 09:30N 47°40' W 122°23'0 0.0
2019-Jan-11 09:00N 47°40' W 122°23'0 0.0
2019-Jan-11 08:30N 47°40' W 122°23'0 0.0
2019-Jan-11 08:00N 47°40' W 122°23'0 0.0
2019-Jan-11 07:30N 47°40' W 122°23'0 0.0
2019-Jan-11 07:00N 47°40' W 122°23'0 0.0
2019-Jan-11 06:30N 47°40' W 122°23'0 0.0
2019-Jan-11 06:00N 47°40' W 122°23'0 0.0
2019-Jan-11 05:30N 47°40' W 122°23'0 0.0
2019-Jan-11 05:00N 47°40' W 122°23'0 0.0
2019-Jan-11 04:30N 47°40' W 122°23'0 0.0
2019-Jan-11 04:00N 47°40' W 122°23'0 0.0
2019-Jan-11 03:30N 47°40' W 122°23'0 0.0
2019-Jan-11 03:00N 47°40' W 122°23'0 0.0
2019-Jan-11 02:30N 47°40' W 122°23'0 0.0
2019-Jan-11 02:00N 47°40' W 122°23'0 0.0
2019-Jan-11 01:30N 47°40' W 122°23'0 0.0
2019-Jan-11 01:00N 47°40' W 122°23'0 0.0
2019-Jan-11 00:30N 47°40' W 122°23'0 0.0
2019-Jan-11 00:00N 47°40' W 122°23'0 0.0
2019-Jan-10 23:30N 47°40' W 122°23'0 0.0
2019-Jan-10 23:00N 47°40' W 122°23'0 0.0
2019-Jan-10 22:30N 47°40' W 122°23'0 0.0
2019-Jan-10 22:00N 47°40' W 122°23'0 0.0
2019-Jan-10 21:30N 47°40' W 122°23'0 0.0
2019-Jan-10 21:00N 47°40' W 122°23'0 0.0
2019-Jan-10 20:30N 47°40' W 122°23'0 0.0
2019-Jan-10 20:00N 47°40' W 122°23'0 0.0
2019-Jan-10 19:30N 47°40' W 122°23'0 0.0
2019-Jan-10 19:00N 47°40' W 122°23'0 0.0
2019-Jan-10 18:30N 47°40' W 122°23'0 0.0
2019-Jan-10 18:00N 47°40' W 122°23'0 0.0
2019-Jan-10 17:30N 47°40' W 122°23'0 0.0
2019-Jan-10 17:00N 47°40' W 122°23'0 0.0
2019-Jan-10 16:30N 47°40' W 122°23'0 0.0
2019-Jan-10 16:00N 47°40' W 122°23'0 0.0
2019-Jan-10 15:30N 47°40' W 122°23'0 0.0
2019-Jan-10 15:00N 47°40' W 122°23'0 0.0
2019-Jan-10 14:30N 47°40' W 122°23'0 0.0
2019-Jan-10 14:00N 47°40' W 122°23'0 0.0
2019-Jan-10 13:30N 47°40' W 122°23'0 0.0
2019-Jan-10 13:00N 47°40' W 122°23'0 0.0
2019-Jan-10 12:30N 47°40' W 122°23'0 0.0
2019-Jan-10 12:00N 47°40' W 122°23'0 0.0
2019-Jan-10 11:30N 47°40' W 122°23'0 0.0
2019-Jan-10 11:00N 47°40' W 122°23'0 0.0
2019-Jan-10 10:30N 47°40' W 122°23'0 0.0
2019-Jan-10 10:00N 47°40' W 122°23'0 0.0
2019-Jan-10 09:30N 47°40' W 122°23'0 0.0
2019-Jan-10 09:00N 47°40' W 122°23'0 0.0
2019-Jan-10 08:30N 47°40' W 122°23'0 0.0
2019-Jan-10 08:00N 47°40' W 122°23'0 0.0
2019-Jan-10 07:30N 47°40' W 122°23'0 0.0
2019-Jan-10 07:00N 47°40' W 122°23'0 0.0
2019-Jan-10 06:30N 47°40' W 122°23'0 0.0
2019-Jan-10 06:00N 47°40' W 122°23'0 0.0
2019-Jan-10 05:30N 47°40' W 122°23'0 0.0
2019-Jan-10 05:00N 47°40' W 122°23'0 0.0
2019-Jan-10 04:30N 47°40' W 122°23'0 0.0
2019-Jan-10 04:00N 47°40' W 122°23'0 0.0
2019-Jan-10 03:30N 47°40' W 122°23'0 0.0
2019-Jan-10 03:00N 47°40' W 122°23'0 0.0
2019-Jan-10 02:30N 47°40' W 122°23'0 0.0
2019-Jan-10 02:00N 47°40' W 122°23'0 0.0
2019-Jan-10 01:30N 47°40' W 122°23'0 0.0
2019-Jan-10 01:00N 47°40' W 122°23'0 0.0
2019-Jan-10 00:30N 47°40' W 122°23'0 0.0
2019-Jan-10 00:00N 47°40' W 122°23'0 0.0
2019-Jan-09 23:30N 47°40' W 122°23'0 0.0
2019-Jan-09 23:00N 47°40' W 122°23'0 0.0
2019-Jan-09 22:30N 47°40' W 122°23'0 0.0
2019-Jan-09 22:00N 47°40' W 122°23'0 0.0
2019-Jan-09 21:30N 47°40' W 122°23'0 0.0
2019-Jan-09 21:00N 47°40' W 122°23'0 0.0
2019-Jan-09 20:30N 47°40' W 122°23'0 0.0
2019-Jan-09 20:00N 47°40' W 122°23'0 0.0
2019-Jan-09 19:30N 47°40' W 122°23'0 0.0
2019-Jan-09 19:00N 47°40' W 122°23'0 0.0
2019-Jan-09 18:30N 47°40' W 122°23'0 0.0
2019-Jan-09 18:00N 47°40' W 122°23'0 0.0
2019-Jan-09 17:30N 47°40' W 122°23'0 0.0
2019-Jan-09 17:00N 47°40' W 122°23'0 0.0
2019-Jan-09 16:30N 47°40' W 122°23'0 0.0
2019-Jan-09 16:00N 47°40' W 122°23'0 0.0
2019-Jan-09 15:30N 47°40' W 122°23'0 0.0
2019-Jan-09 15:00N 47°40' W 122°23'0 0.0
2019-Jan-09 14:30N 47°40' W 122°23'0 0.0
2019-Jan-09 14:00N 47°40' W 122°23'0 0.0
2019-Jan-09 13:30N 47°40' W 122°23'0 0.0
2019-Jan-09 13:00N 47°40' W 122°23'0 0.0
2019-Jan-09 12:30N 47°40' W 122°23'0 0.0
2019-Jan-09 12:00N 47°40' W 122°23'0 0.0
2019-Jan-09 11:30N 47°40' W 122°23'0 0.0
2019-Jan-09 11:00N 47°40' W 122°23'0 0.0
2019-Jan-09 10:30N 47°40' W 122°23'0 0.0
2019-Jan-09 10:00N 47°40' W 122°23'0 0.0
2019-Jan-09 09:30N 47°40' W 122°23'0 0.0
2019-Jan-09 09:00N 47°40' W 122°23'0 0.0
2019-Jan-09 08:30N 47°40' W 122°23'0 0.0
2019-Jan-09 08:00N 47°40' W 122°23'0 0.0
2019-Jan-09 07:30N 47°40' W 122°23'0 0.0
2019-Jan-09 07:00N 47°40' W 122°23'0 0.0
2019-Jan-09 06:30N 47°40' W 122°23'0 0.0
2019-Jan-09 06:00N 47°40' W 122°23'0 0.0
2019-Jan-09 05:30N 47°40' W 122°23'0 0.0
2019-Jan-09 05:00N 47°40' W 122°23'0 0.0
2019-Jan-09 04:30N 47°40' W 122°23'0 0.0
2019-Jan-09 04:00N 47°40' W 122°23'0 0.0
2019-Jan-09 03:30N 47°40' W 122°23'0 0.0
2019-Jan-09 03:00N 47°40' W 122°23'0 0.0
2019-Jan-09 02:30N 47°40' W 122°23'0 0.0
2019-Jan-09 02:00N 47°40' W 122°23'0 0.0
2019-Jan-09 01:30N 47°40' W 122°23'0 0.0
2019-Jan-09 01:00N 47°40' W 122°23'0 0.0
2019-Jan-09 00:30N 47°40' W 122°23'0 0.0
2019-Jan-09 00:00N 47°40' W 122°23'0 0.0
2019-Jan-08 23:30N 47°40' W 122°23'0 0.0
2019-Jan-08 23:00N 47°40' W 122°23'0 0.0
2019-Jan-08 22:30N 47°40' W 122°23'0 0.0
2019-Jan-08 22:00N 47°40' W 122°23'0 0.0
2019-Jan-08 21:30N 47°40' W 122°23'0 0.0
2019-Jan-08 21:00N 47°40' W 122°23'0 0.0
2019-Jan-08 20:30N 47°40' W 122°23'0 0.0
2019-Jan-08 20:00N 47°40' W 122°23'0 0.0
2019-Jan-08 19:30N 47°40' W 122°23'0 0.0
2019-Jan-08 19:00N 47°40' W 122°23'0 0.0
2019-Jan-08 18:30N 47°40' W 122°23'0 0.0
2019-Jan-08 18:00N 47°40' W 122°23'0 0.0
2019-Jan-08 17:30N 47°40' W 122°23'0 0.0
2019-Jan-08 17:00N 47°40' W 122°23'0 0.0
2019-Jan-08 16:30N 47°40' W 122°23'0 0.0
2019-Jan-08 16:00N 47°40' W 122°23'0 0.0
2019-Jan-08 15:30N 47°40' W 122°23'0 0.0
2019-Jan-08 15:00N 47°40' W 122°23'0 0.0
2019-Jan-08 14:30N 47°40' W 122°23'0 0.0
2019-Jan-08 14:00N 47°40' W 122°23'0 0.0
2019-Jan-08 13:30N 47°40' W 122°23'0 0.0
2019-Jan-08 13:00N 47°40' W 122°23'0 0.0
2019-Jan-08 12:30N 47°40' W 122°23'0 0.0
2019-Jan-08 12:00N 47°40' W 122°23'0 0.0
2019-Jan-08 11:30N 47°40' W 122°23'0 0.0
2019-Jan-08 11:00N 47°40' W 122°23'0 0.0
2019-Jan-08 10:30N 47°40' W 122°23'0 0.0
2019-Jan-08 10:00N 47°40' W 122°23'0 0.0
2019-Jan-08 09:30N 47°40' W 122°23'0 0.0
2019-Jan-08 09:00N 47°40' W 122°23'0 0.0
2019-Jan-08 08:30N 47°40' W 122°23'  

Dump ship's entire track history